createdAt,value
2023-11-30T00:12:47.515Z,98564.25
2023-11-30T00:16:32.668Z,98563.19
2023-11-30T00:20:23.934Z,98565.06
2023-11-30T00:24:26.516Z,98559.27
2023-11-30T00:28:28.850Z,98552.41
2023-11-30T00:31:50.882Z,98554.27
2023-11-30T00:35:53.335Z,98552.41
2023-11-30T00:39:55.679Z,98545.92
2023-11-30T00:43:38.873Z,98545.20
2023-11-30T00:47:14.310Z,98541.30
2023-11-30T00:50:56.427Z,98547.36
2023-11-30T00:54:58.899Z,98548.44
2023-11-30T00:59:00.737Z,98538.03
2023-11-30T01:03:03.336Z,98533.75
2023-11-30T01:07:05.817Z,98530.94
2023-11-30T01:10:51.454Z,98528.23
2023-11-30T01:14:46.202Z,98522.55
2023-11-30T01:18:28.863Z,98525.08
2023-11-30T01:22:20.299Z,98520.73
2023-11-30T01:25:52.947Z,98517.52
2023-11-30T01:29:55.410Z,98520.64
2023-11-30T01:33:57.827Z,98518.92
2023-11-30T01:37:38.949Z,98518.31
2023-11-30T01:41:10.171Z,98516.61
2023-11-30T01:44:52.578Z,98521.61
2023-11-30T01:48:45.023Z,98520.20
2023-11-30T01:52:10.794Z,98526.09
2023-11-30T01:55:15.917Z,98522.20
2023-11-30T01:59:01.345Z,98528.02
2023-11-30T02:02:36.468Z,98522.50
2023-11-30T02:06:07.245Z,98521.54
2023-11-30T02:09:49.580Z,98523.59
2023-11-30T02:13:35.746Z,98522.95
2023-11-30T02:17:07.657Z,98511.69
2023-11-30T02:20:50.024Z,98511.20
2023-11-30T02:24:32.027Z,98509.02
2023-11-30T02:28:15.740Z,98509.67
2023-11-30T02:32:01.019Z,98509.81
2023-11-30T02:35:43.558Z,98510.61
2023-11-30T02:39:45.974Z,98508.73
2023-11-30T02:43:38.202Z,98506.97
2023-11-30T02:47:20.581Z,98506.07
2023-11-30T02:50:43.090Z,98504.87
2023-11-30T02:54:28.949Z,98504.19
2023-11-30T02:57:58.918Z,98502.46
2023-11-30T03:01:42.519Z,98501.08
2023-11-30T03:05:05.262Z,98502.40
2023-11-30T03:09:07.861Z,98502.23
2023-11-30T03:12:42.889Z,98496.34
2023-11-30T03:16:45.322Z,98495.55
2023-11-30T03:20:47.962Z,98494.20
2023-11-30T03:24:30.024Z,98492.25
2023-11-30T03:28:32.499Z,98495.64
2023-11-30T03:32:14.844Z,98497.16
2023-11-30T03:36:17.254Z,98495.31
2023-11-30T03:39:59.695Z,98494.48
2023-11-30T03:44:00.823Z,98490.62
2023-11-30T03:47:43.213Z,98490.80
2023-11-30T03:50:53.416Z,98484.06
2023-11-30T03:54:56.707Z,98479.31
2023-11-30T03:58:38.845Z,98482.59
2023-11-30T04:02:33.665Z,98477.25
2023-11-30T04:05:59.169Z,98474.09
2023-11-30T04:10:01.635Z,98479.35
2023-11-30T04:13:23.535Z,98473.45
2023-11-30T04:17:26.104Z,98473.65
2023-11-30T04:20:46.876Z,98473.64
2023-11-30T04:24:32.100Z,98473.95
2023-11-30T04:27:57.115Z,98470.92
2023-11-30T04:31:09.282Z,98467.18
2023-11-30T04:34:31.702Z,98461.63
2023-11-30T04:37:39.457Z,98460.98
2023-11-30T04:41:04.256Z,98460.04
2023-11-30T04:44:46.388Z,98459.68
2023-11-30T04:48:11.519Z,98459.14
2023-11-30T04:51:34.296Z,98460.29
2023-11-30T04:55:07.169Z,98463.37
2023-11-30T04:58:14.978Z,98464.10
2023-11-30T05:01:28.157Z,98461.16
2023-11-30T05:04:32.459Z,98456.98
2023-11-30T05:07:37.281Z,98457.34
2023-11-30T05:10:59.745Z,98451.50
2023-11-30T05:14:04.057Z,98447.41
2023-11-30T05:17:08.519Z,98449.75
2023-11-30T05:20:16.230Z,98448.94
2023-11-30T05:23:18.470Z,98447.73
2023-11-30T05:26:23.544Z,98445.92
2023-11-30T05:29:25.427Z,98443.85
2023-11-30T05:32:48.047Z,98444.61
2023-11-30T05:35:53.057Z,98442.98
2023-11-30T05:38:55.074Z,98446.73
2023-11-30T05:42:00.245Z,98448.80
2023-11-30T05:45:09.362Z,98445.02
2023-11-30T05:48:14.116Z,98447.52
2023-11-30T05:51:19.775Z,98449.49
2023-11-30T05:54:22.170Z,98454.91
2023-11-30T05:57:30.067Z,98455.20
2023-11-30T06:00:34.733Z,98456.73
2023-11-30T06:03:36.914Z,98460.60
2023-11-30T06:06:39.044Z,98460.70
2023-11-30T06:09:41.056Z,98457.30
2023-11-30T06:12:43.121Z,98453.79
2023-11-30T06:15:45.355Z,98455.98
2023-11-30T06:18:50.483Z,98456.11
2023-11-30T06:21:55.356Z,98454.13
2023-11-30T06:24:57.845Z,98453.41
2023-11-30T06:28:17.791Z,98455.23
2023-11-30T06:31:25.122Z,98452.12
2023-11-30T06:34:30.661Z,98445.69
2023-11-30T06:37:52.781Z,98456.48
2023-11-30T06:40:54.678Z,98453.74
2023-11-30T06:43:56.744Z,98454.99
2023-11-30T06:47:18.817Z,98454.98
2023-11-30T06:50:23.409Z,98463.96
2023-11-30T06:53:25.679Z,98462.15
2023-11-30T06:56:30.295Z,98473.10
2023-11-30T06:59:35.309Z,98473.58
2023-11-30T07:02:37.295Z,98475.34
2023-11-30T07:05:44.975Z,98476.42
2023-11-30T07:08:47.283Z,98475.88
2023-11-30T07:11:50.025Z,98467.17
2023-11-30T07:14:52.080Z,98470.58
2023-11-30T07:17:54.585Z,98471.21
2023-11-30T07:20:59.207Z,98469.52
2023-11-30T07:24:01.321Z,98469.70
2023-11-30T07:27:03.494Z,98464.73
2023-11-30T07:30:09.618Z,98465.30
2023-11-30T07:33:12.260Z,98466.55
2023-11-30T07:36:17.287Z,98462.58
2023-11-30T07:39:22.165Z,98463.85
2023-11-30T07:42:34.972Z,98466.63
2023-11-30T07:45:54.041Z,98471.55
2023-11-30T07:49:08.109Z,98475.11
2023-11-30T07:52:09.920Z,98482.24
2023-11-30T07:55:11.533Z,98485.16
2023-11-30T07:58:13.315Z,98487.23
2023-11-30T08:01:20.460Z,98490.15
2023-11-30T08:04:23.420Z,98487.17
2023-11-30T08:07:45.874Z,98484.09
2023-11-30T08:11:10.684Z,98483.09
2023-11-30T08:14:41.739Z,98478.11
2023-11-30T08:18:03.990Z,98477.34
2023-11-30T08:21:06.245Z,98471.83
2023-11-30T08:24:16.071Z,98470.48
2023-11-30T08:27:21.921Z,98469.95
2023-11-30T08:30:26.853Z,98473.23
2023-11-30T08:33:33.444Z,98471.11
2023-11-30T08:36:40.154Z,98465.17
2023-11-30T08:39:45.551Z,98462.99
2023-11-30T08:42:47.479Z,98465.38
2023-11-30T08:45:49.517Z,98472.16
2023-11-30T08:48:51.603Z,98467.27
2023-11-30T08:51:54.110Z,98467.52
2023-11-30T08:54:56.851Z,98470.54
2023-11-30T08:57:58.951Z,98466.90
2023-11-30T09:01:01.058Z,98470.29
2023-11-30T09:04:03.189Z,98470.13
2023-11-30T09:07:05.151Z,98470.20
2023-11-30T09:10:07.352Z,98471.93
2023-11-30T09:13:09.265Z,98468.77
2023-11-30T09:16:11.179Z,98464.42
2023-11-30T09:19:13.140Z,98463.10
2023-11-30T09:22:14.897Z,98452.42
2023-11-30T09:25:16.653Z,98446.22
2023-11-30T09:28:18.586Z,98446.17
2023-11-30T09:31:20.390Z,98436.58
2023-11-30T09:34:22.178Z,98435.27
2023-11-30T09:37:23.859Z,98435.48
2023-11-30T09:40:25.832Z,98436.30
2023-11-30T09:43:27.553Z,98429.63
2023-11-30T09:46:29.419Z,98432.31
2023-11-30T09:49:31.285Z,98431.54
2023-11-30T09:52:33.202Z,98432.00
2023-11-30T09:55:36.218Z,98427.20
2023-11-30T09:58:37.926Z,98423.80
2023-11-30T10:01:39.857Z,98418.36
2023-11-30T10:04:41.610Z,98417.77
2023-11-30T10:07:43.955Z,98414.15
2023-11-30T10:10:46.813Z,98406.76
2023-11-30T10:13:48.494Z,98403.39
2023-11-30T10:16:50.448Z,98401.33
2023-11-30T10:19:52.374Z,98395.73
2023-11-30T10:22:54.168Z,98394.33
2023-11-30T10:25:56.474Z,98388.86
2023-11-30T10:28:58.983Z,98389.46
2023-11-30T10:32:03.778Z,98384.14
2023-11-30T10:35:06.649Z,98377.61
2023-11-30T10:38:09.181Z,98368.15
2023-11-30T10:41:20.063Z,98364.54
2023-11-30T10:44:32.000Z,98358.05
2023-11-30T10:47:37.381Z,98352.54
2023-11-30T10:50:40.205Z,98351.27
2023-11-30T10:53:48.257Z,98356.26
2023-11-30T10:57:19.704Z,98350.43
2023-11-30T11:00:21.773Z,98348.84
2023-11-30T11:03:23.972Z,98343.71
2023-11-30T11:06:26.779Z,98340.77
2023-11-30T11:09:45.216Z,98341.90
2023-11-30T11:12:50.021Z,98339.58
2023-11-30T11:15:59.517Z,98339.58
2023-11-30T11:19:05.909Z,98336.95
2023-11-30T11:22:35.918Z,98329.50
2023-11-30T11:25:40.940Z,98318.49
2023-11-30T11:28:42.908Z,98318.00
2023-11-30T11:31:48.173Z,98320.38
2023-11-30T11:34:49.880Z,98322.05
2023-11-30T11:38:12.116Z,98310.29
2023-11-30T11:41:16.530Z,98295.25
2023-11-30T11:44:24.819Z,98299.81
2023-11-30T11:47:43.278Z,98304.92
2023-11-30T11:50:57.784Z,98302.02
2023-11-30T11:53:59.716Z,98297.73
2023-11-30T11:57:13.230Z,98292.53
2023-11-30T12:00:16.327Z,98292.69
2023-11-30T12:03:30.326Z,98294.84
2023-11-30T12:06:32.338Z,98287.73
2023-11-30T12:09:37.087Z,98287.83
2023-11-30T12:13:02.799Z,98288.98
2023-11-30T12:16:30.734Z,98276.50
2023-11-30T12:19:55.976Z,98270.16
2023-11-30T12:23:01.683Z,98268.02
2023-11-30T12:26:03.934Z,98271.77
2023-11-30T12:29:16.968Z,98276.70
2023-11-30T12:32:22.110Z,98284.34
2023-11-30T12:35:44.080Z,98271.48
2023-11-30T12:39:09.026Z,98272.08
2023-11-30T12:42:14.046Z,98266.80
2023-11-30T12:45:19.144Z,98262.73
2023-11-30T12:48:21.351Z,98255.54
2023-11-30T12:51:43.661Z,98249.40
2023-11-30T12:55:06.325Z,98243.22
2023-11-30T12:58:11.859Z,98239.77
2023-11-30T13:01:19.916Z,98237.22
2023-11-30T13:04:22.979Z,98233.85
2023-11-30T13:07:27.318Z,98226.09
2023-11-30T13:10:54.938Z,98219.52
2023-11-30T13:13:59.906Z,98215.08
2023-11-30T13:18:42.911Z,98217.41
2023-11-30T13:21:50.481Z,98215.34
2023-11-30T13:24:54.633Z,98223.73
2023-11-30T13:27:56.844Z,98221.17
2023-11-30T13:31:01.379Z,98224.59
2023-11-30T13:34:12.370Z,98228.45
2023-11-30T13:37:23.518Z,98225.04
2023-11-30T13:40:45.800Z,98223.52
2023-11-30T13:43:50.960Z,98222.34
2023-11-30T13:47:33.920Z,98225.98
2023-11-30T13:50:42.126Z,98218.67
2023-11-30T13:54:11.855Z,98210.25
2023-11-30T13:57:16.638Z,98209.42
2023-11-30T14:00:44.905Z,98213.69
2023-11-30T14:03:50.166Z,98211.04
2023-11-30T14:07:25.503Z,98210.56
2023-11-30T14:10:36.042Z,98211.96
2023-11-30T14:13:38.201Z,98217.14
2023-11-30T14:17:20.615Z,98210.55
2023-11-30T14:20:24.912Z,98211.89
2023-11-30T14:23:29.901Z,98213.89
2023-11-30T14:26:46.478Z,98220.67
2023-11-30T14:30:12.172Z,98219.17
2023-11-30T14:33:34.835Z,98215.89
2023-11-30T14:36:42.942Z,98208.40
2023-11-30T14:40:05.780Z,98207.52
2023-11-30T14:43:33.895Z,98209.89
2023-11-30T14:46:58.918Z,98212.91
2023-11-30T14:50:24.493Z,98209.54
2023-11-30T14:53:45.244Z,98206.15
2023-11-30T14:57:10.437Z,98208.66
2023-11-30T15:00:56.639Z,98211.58
2023-11-30T15:04:41.292Z,98214.56
2023-11-30T15:07:49.198Z,98211.07
2023-11-30T15:13:48.090Z,98200.02
2023-11-30T15:16:50.170Z,98198.70
2023-11-30T15:19:55.488Z,98198.50
2023-11-30T15:22:57.477Z,98200.32
2023-11-30T15:26:19.931Z,98200.66
2023-11-30T15:29:28.321Z,98201.84
2023-11-30T15:32:58.089Z,98198.42
2023-11-30T15:36:13.857Z,98195.17
2023-11-30T15:39:30.120Z,98196.10
2023-11-30T15:42:52.436Z,98198.91
2023-11-30T15:45:57.436Z,98203.61
2023-11-30T15:49:12.040Z,98205.80
2023-11-30T15:52:39.707Z,98203.74
2023-11-30T15:55:45.166Z,98204.06
2023-11-30T15:59:30.940Z,98198.97
2023-11-30T16:02:48.896Z,98203.45
2023-11-30T16:06:28.714Z,98211.27
2023-11-30T16:09:30.987Z,98209.27
2023-11-30T16:13:00.658Z,98202.87
2023-11-30T16:16:31.702Z,98205.27
2023-11-30T16:20:14.013Z,98204.44
2023-11-30T16:23:39.367Z,98191.05
2023-11-30T16:27:21.848Z,98185.08
2023-11-30T16:30:54.218Z,98185.36
2023-11-30T16:34:01.779Z,98174.64
2023-11-30T16:37:44.091Z,98172.09
2023-11-30T16:41:26.223Z,98173.45
2023-11-30T16:45:26.280Z,98173.98
2023-11-30T16:48:56.060Z,98169.06
2023-11-30T16:52:08.481Z,98174.81
2023-11-30T16:55:36.660Z,98177.52
2023-11-30T16:59:07.099Z,98170.86
2023-11-30T17:02:35.020Z,98155.73
2023-11-30T17:05:45.661Z,98145.59
2023-11-30T17:09:40.775Z,98130.15
2023-11-30T17:13:12.418Z,98116.89
2023-11-30T17:16:54.852Z,98123.65
2023-11-30T17:20:56.023Z,98138.33
2023-11-30T17:24:41.619Z,98147.42
2023-11-30T17:28:27.281Z,98158.25
2023-11-30T17:32:01.265Z,98151.95
2023-11-30T17:35:43.863Z,98141.90
2023-11-30T17:39:29.833Z,98135.70
2023-11-30T17:43:15.082Z,98141.16
2023-11-30T17:46:57.424Z,98130.48
2023-11-30T17:50:31.937Z,98124.37
2023-11-30T17:53:57.033Z,98130.52
2023-11-30T17:57:30.741Z,98113.98
2023-11-30T18:01:33.128Z,98123.66
2023-11-30T18:05:18.903Z,98128.75
2023-11-30T18:09:01.286Z,98140.11
2023-11-30T18:12:23.509Z,98146.63
2023-11-30T18:15:55.587Z,98156.48
2023-11-30T18:19:38.131Z,98144.88
2023-11-30T18:23:40.481Z,98132.31
2023-11-30T18:27:22.842Z,98117.09
2023-11-30T18:31:08.149Z,98118.27
2023-11-30T18:35:18.998Z,98117.77
2023-11-30T18:39:21.607Z,98114.50
2023-11-30T18:42:47.191Z,98119.95
2023-11-30T18:46:33.620Z,98125.16
2023-11-30T18:50:36.054Z,98120.04
2023-11-30T18:54:38.430Z,98121.80
2023-11-30T18:58:10.481Z,98110.45
2023-11-30T19:01:38.622Z,98102.20
2023-11-30T19:05:30.858Z,98095.90
2023-11-30T19:09:14.263Z,98099.48
2023-11-30T19:12:36.605Z,98079.90
2023-11-30T19:16:01.594Z,98055.15
2023-11-30T19:19:35.638Z,98033.50
2023-11-30T19:23:07.897Z,98071.11
2023-11-30T19:26:29.773Z,98078.20
2023-11-30T19:30:32.547Z,98097.77
2023-11-30T19:33:57.745Z,98118.83
2023-11-30T19:37:22.560Z,98118.48
2023-11-30T19:40:52.030Z,98125.48
2023-11-30T19:43:53.934Z,98132.30
2023-11-30T19:47:24.260Z,98122.07
2023-11-30T19:50:52.111Z,98119.06
2023-11-30T19:54:14.796Z,98114.73
2023-11-30T19:57:16.734Z,98109.13
2023-11-30T20:00:47.333Z,98102.83
2023-11-30T20:04:19.757Z,98081.17
2023-11-30T20:07:21.841Z,98085.61
2023-11-30T20:10:50.623Z,98088.33
2023-11-30T20:14:11.569Z,98078.34
2023-11-30T20:17:23.516Z,98070.40
2023-11-30T20:21:08.259Z,98068.08
2023-11-30T20:24:50.640Z,98062.20
2023-11-30T20:28:13.527Z,98067.91
2023-11-30T20:31:47.585Z,98039.19
2023-11-30T20:35:50.110Z,98024.48
2023-11-30T20:39:32.738Z,98011.86
2023-11-30T20:42:57.230Z,98008.42
2023-11-30T20:46:45.197Z,98049.94
2023-11-30T20:50:30.969Z,98070.25
2023-11-30T20:53:53.412Z,98070.60
2023-11-30T20:57:38.200Z,98071.45
2023-11-30T21:00:52.457Z,98058.44
2023-11-30T21:04:20.937Z,98041.27
2023-11-30T21:08:06.413Z,98034.68
2023-11-30T21:11:48.784Z,98033.11
2023-11-30T21:15:51.463Z,98023.27
2023-11-30T21:19:35.879Z,98049.36
2023-11-30T21:23:28.256Z,98052.58
2023-11-30T21:27:12.509Z,98050.17
2023-11-30T21:30:54.957Z,98028.04
2023-11-30T21:34:40.148Z,98046.20
2023-11-30T21:38:09.560Z,98053.66
2023-11-30T21:42:01.599Z,98053.86
2023-11-30T21:45:27.268Z,98036.15
2023-11-30T21:48:58.976Z,98041.39
2023-11-30T21:52:44.534Z,98049.34
2023-11-30T21:56:46.909Z,98047.73
2023-11-30T21:59:48.691Z,98040.55
2023-11-30T22:03:31.390Z,98039.98
2023-11-30T22:07:33.780Z,98037.86
2023-11-30T22:11:09.230Z,98036.36
2023-11-30T22:14:54.279Z,98040.15
2023-11-30T22:18:45.930Z,98040.44
2023-11-30T22:22:28.405Z,98047.19
2023-11-30T22:25:58.799Z,98055.73
2023-11-30T22:29:46.370Z,98049.43
2023-11-30T22:33:31.877Z,98056.85
2023-11-30T22:36:56.315Z,98048.99
2023-11-30T22:40:10.757Z,98050.84
2023-11-30T22:43:32.806Z,98048.96
2023-11-30T22:46:55.957Z,98043.19
2023-11-30T22:50:41.132Z,98041.14
2023-11-30T22:54:08.844Z,98039.06
2023-11-30T22:57:47.878Z,98046.72
2023-11-30T23:01:10.271Z,98055.34
2023-11-30T23:04:16.385Z,98056.31
2023-11-30T23:08:03.716Z,98049.31
2023-11-30T23:11:40.096Z,98048.42
2023-11-30T23:15:05.148Z,98051.45
2023-11-30T23:18:42.573Z,98058.73
2023-11-30T23:22:35.649Z,98056.19
2023-11-30T23:25:57.571Z,98043.92
2023-11-30T23:29:42.663Z,98048.68
2023-11-30T23:33:45.168Z,98057.33
2023-11-30T23:36:57.896Z,98054.90
2023-11-30T23:40:26.136Z,98057.45
2023-11-30T23:44:01.011Z,98066.69
2023-11-30T23:47:43.223Z,98054.77
2023-11-30T23:51:13.469Z,98060.79
2023-11-30T23:54:35.676Z,98067.13
2023-11-30T23:58:07.431Z,98060.70
